Valley Park, Missouri
Current Conditions -  °F | °C
As of 9:54 PM on Saturday 25 Oct 2014 (Local Time) from KSUS Reporting Station
Clear Clear  
Wind Chill: 55°   Ceiling: Unl
Heat Index: 55°   Visibility: 10mi
Dew Point: 53°   Wind: 0mph
Humidity: 93%   Direction: NA
Pressure: 30.02"   Gusts: NA
Location:  38.55°N, 90.49°W
Report Text: KSUS 260254Z 00000KT 10SM CLR 13/12 A3002 RMK AO2 SLP163 T01280117 51006
Loading
Personal Weather Stations






























Interactive Weather Map
Tropical Storm Tracking
New forecast layout! Learn more

10-Day Weather Forecast

Advertisements
Track Severe Weather on mobile